sensor_id;sensor_type;location;lat;lon;timestamp;P1;durP1;ratioP1;P2;durP2;ratioP2
23300;SDS011;11819;51.394;12.340;2023-05-25T00:01:23;12.23;;;7.60;;
23300;SDS011;11819;51.394;12.340;2023-05-25T00:03:50;13.75;;;7.68;;
23300;SDS011;11819;51.394;12.340;2023-05-25T00:06:16;13.10;;;6.85;;
23300;SDS011;11819;51.394;12.340;2023-05-25T00:08:44;13.43;;;7.40;;
23300;SDS011;11819;51.394;12.340;2023-05-25T00:11:10;11.85;;;7.00;;
23300;SDS011;11819;51.394;12.340;2023-05-25T00:13:37;13.00;;;7.65;;
23300;SDS011;11819;51.394;12.340;2023-05-25T00:16:03;14.07;;;7.50;;
23300;SDS011;11819;51.394;12.340;2023-05-25T00:18:30;14.10;;;7.97;;
23300;SDS011;11819;51.394;12.340;2023-05-25T00:20:57;15.80;;;8.45;;
23300;SDS011;11819;51.394;12.340;2023-05-25T00:23:29;15.18;;;7.60;;
23300;SDS011;11819;51.394;12.340;2023-05-25T00:25:55;12.45;;;7.80;;
23300;SDS011;11819;51.394;12.340;2023-05-25T00:28:22;13.05;;;8.10;;
23300;SDS011;11819;51.394;12.340;2023-05-25T00:30:48;14.32;;;8.15;;
23300;SDS011;11819;51.394;12.340;2023-05-25T00:33:15;14.50;;;7.93;;
23300;SDS011;11819;51.394;12.340;2023-05-25T00:35:41;13.63;;;7.53;;
23300;SDS011;11819;51.394;12.340;2023-05-25T00:38:16;17.60;;;7.70;;
23300;SDS011;11819;51.394;12.340;2023-05-25T00:40:43;16.42;;;8.32;;
23300;SDS011;11819;51.394;12.340;2023-05-25T00:43:09;13.55;;;8.23;;
23300;SDS011;11819;51.394;12.340;2023-05-25T00:45:36;11.25;;;7.90;;
23300;SDS011;11819;51.394;12.340;2023-05-25T00:48:02;15.20;;;7.28;;
23300;SDS011;11819;51.394;12.340;2023-05-25T00:50:36;15.05;;;8.82;;
23300;SDS011;11819;51.394;12.340;2023-05-25T00:53:04;16.40;;;8.25;;
23300;SDS011;11819;51.394;12.340;2023-05-25T00:55:32;15.02;;;8.85;;
23300;SDS011;11819;51.394;12.340;2023-05-25T00:58:01;14.35;;;8.43;;
23300;SDS011;11819;51.394;12.340;2023-05-25T01:00:29;15.57;;;8.50;;
23300;SDS011;11819;51.394;12.340;2023-05-25T01:02:56;13.60;;;8.77;;
23300;SDS011;11819;51.394;12.340;2023-05-25T01:05:25;14.55;;;8.00;;
23300;SDS011;11819;51.394;12.340;2023-05-25T01:07:54;14.63;;;8.57;;
23300;SDS011;11819;51.394;12.340;2023-05-25T01:10:24;14.30;;;8.18;;
23300;SDS011;11819;51.394;12.340;2023-05-25T01:12:52;16.73;;;8.50;;
23300;SDS011;11819;51.394;12.340;2023-05-25T01:15:21;19.15;;;9.07;;
23300;SDS011;11819;51.394;12.340;2023-05-25T01:17:48;15.73;;;8.63;;
23300;SDS011;11819;51.394;12.340;2023-05-25T01:20:17;14.55;;;8.70;;
23300;SDS011;11819;51.394;12.340;2023-05-25T01:22:50;14.82;;;8.63;;
23300;SDS011;11819;51.394;12.340;2023-05-25T01:25:22;14.68;;;8.68;;
23300;SDS011;11819;51.394;12.340;2023-05-25T01:27:59;18.33;;;9.07;;
23300;SDS011;11819;51.394;12.340;2023-05-25T01:30:31;19.75;;;9.07;;
23300;SDS011;11819;51.394;12.340;2023-05-25T01:32:58;16.27;;;8.93;;
23300;SDS011;11819;51.394;12.340;2023-05-25T01:35:26;16.48;;;9.27;;
23300;SDS011;11819;51.394;12.340;2023-05-25T01:37:54;17.65;;;9.07;;
23300;SDS011;11819;51.394;12.340;2023-05-25T01:40:20;16.05;;;9.30;;
23300;SDS011;11819;51.394;12.340;2023-05-25T01:42:46;16.10;;;8.68;;
23300;SDS011;11819;51.394;12.340;2023-05-25T01:45:11;15.63;;;8.60;;
23300;SDS011;11819;51.394;12.340;2023-05-25T01:47:43;17.80;;;9.20;;
23300;SDS011;11819;51.394;12.340;2023-05-25T01:55:28;16.38;;;8.77;;
23300;SDS011;11819;51.394;12.340;2023-05-25T01:57:59;16.45;;;8.65;;
23300;SDS011;11819;51.394;12.340;2023-05-25T02:00:27;14.95;;;8.60;;
23300;SDS011;11819;51.394;12.340;2023-05-25T02:02:58;14.60;;;9.13;;
23300;SDS011;11819;51.394;12.340;2023-05-25T02:05:25;17.45;;;9.07;;
23300;SDS011;11819;51.394;12.340;2023-05-25T02:07:52;15.85;;;9.45;;
23300;SDS011;11819;51.394;12.340;2023-05-25T02:10:18;17.13;;;9.18;;
23300;SDS011;11819;51.394;12.340;2023-05-25T02:12:44;15.13;;;9.30;;
23300;SDS011;11819;51.394;12.340;2023-05-25T02:15:10;16.20;;;8.50;;
23300;SDS011;11819;51.394;12.340;2023-05-25T02:17:36;16.83;;;8.85;;
23300;SDS011;11819;51.394;12.340;2023-05-25T02:20:03;15.13;;;9.27;;
23300;SDS011;11819;51.394;12.340;2023-05-25T02:22:33;15.68;;;9.18;;
23300;SDS011;11819;51.394;12.340;2023-05-25T02:25:01;17.50;;;9.50;;
23300;SDS011;11819;51.394;12.340;2023-05-25T02:27:28;17.63;;;9.35;;
23300;SDS011;11819;51.394;12.340;2023-05-25T02:29:54;16.67;;;9.00;;
23300;SDS011;11819;51.394;12.340;2023-05-25T02:32:23;18.52;;;9.43;;
23300;SDS011;11819;51.394;12.340;2023-05-25T02:34:49;16.35;;;8.68;;
23300;SDS011;11819;51.394;12.340;2023-05-25T02:37:16;14.82;;;8.73;;
23300;SDS011;11819;51.394;12.340;2023-05-25T02:39:41;15.82;;;8.57;;
23300;SDS011;11819;51.394;12.340;2023-05-25T02:42:08;17.10;;;8.88;;
23300;SDS011;11819;51.394;12.340;2023-05-25T02:44:34;16.20;;;9.07;;
23300;SDS011;11819;51.394;12.340;2023-05-25T02:46:59;15.55;;;8.55;;
23300;SDS011;11819;51.394;12.340;2023-05-25T02:49:25;17.05;;;9.55;;
23300;SDS011;11819;51.394;12.340;2023-05-25T02:51:51;14.57;;;8.82;;
23300;SDS011;11819;51.394;12.340;2023-05-25T02:54:17;13.68;;;7.82;;
23300;SDS011;11819;51.394;12.340;2023-05-25T02:56:43;14.75;;;8.75;;
23300;SDS011;11819;51.394;12.340;2023-05-25T02:59:11;16.55;;;8.65;;
23300;SDS011;11819;51.394;12.340;2023-05-25T03:01:37;13.93;;;8.73;;
23300;SDS011;11819;51.394;12.340;2023-05-25T03:04:05;15.90;;;8.75;;
23300;SDS011;11819;51.394;12.340;2023-05-25T03:06:34;14.88;;;8.85;;
23300;SDS011;11819;51.394;12.340;2023-05-25T03:09:15;15.85;;;8.80;;
23300;SDS011;11819;51.394;12.340;2023-05-25T03:11:40;14.93;;;8.95;;
23300;SDS011;11819;51.394;12.340;2023-05-25T03:14:10;16.83;;;9.23;;
23300;SDS011;11819;51.394;12.340;2023-05-25T03:16:38;17.00;;;9.55;;
23300;SDS011;11819;51.394;12.340;2023-05-25T03:19:04;15.75;;;9.15;;
23300;SDS011;11819;51.394;12.340;2023-05-25T03:21:32;15.57;;;9.27;;
23300;SDS011;11819;51.394;12.340;2023-05-25T03:23:58;15.40;;;9.20;;
23300;SDS011;11819;51.394;12.340;2023-05-25T03:26:24;16.38;;;8.93;;
23300;SDS011;11819;51.394;12.340;2023-05-25T03:28:51;17.55;;;9.23;;
23300;SDS011;11819;51.394;12.340;2023-05-25T03:31:17;15.23;;;9.23;;
23300;SDS011;11819;51.394;12.340;2023-05-25T03:33:44;13.43;;;8.57;;
23300;SDS011;11819;51.394;12.340;2023-05-25T03:36:11;13.85;;;8.52;;
23300;SDS011;11819;51.394;12.340;2023-05-25T03:38:43;15.25;;;8.48;;
23300;SDS011;11819;51.394;12.340;2023-05-25T03:41:09;13.93;;;8.95;;
23300;SDS011;11819;51.394;12.340;2023-05-25T03:43:35;13.65;;;8.57;;
23300;SDS011;11819;51.394;12.340;2023-05-25T03:46:03;13.85;;;8.85;;
23300;SDS011;11819;51.394;12.340;2023-05-25T03:48:28;17.70;;;8.70;;
23300;SDS011;11819;51.394;12.340;2023-05-25T03:50:54;13.95;;;8.75;;
23300;SDS011;11819;51.394;12.340;2023-05-25T03:53:20;14.93;;;8.27;;
23300;SDS011;11819;51.394;12.340;2023-05-25T03:55:46;14.85;;;9.15;;
23300;SDS011;11819;51.394;12.340;2023-05-25T03:58:15;20.00;;;10.45;;
23300;SDS011;11819;51.394;12.340;2023-05-25T04:00:44;18.33;;;9.30;;
23300;SDS011;11819;51.394;12.340;2023-05-25T04:03:10;19.67;;;10.15;;
23300;SDS011;11819;51.394;12.340;2023-05-25T04:05:35;16.23;;;9.73;;
23300;SDS011;11819;51.394;12.340;2023-05-25T04:08:05;18.23;;;9.95;;
23300;SDS011;11819;51.394;12.340;2023-05-25T04:10:35;16.38;;;10.07;;
23300;SDS011;11819;51.394;12.340;2023-05-25T04:13:01;18.55;;;10.43;;
23300;SDS011;11819;51.394;12.340;2023-05-25T04:15:26;17.88;;;10.73;;
23300;SDS011;11819;51.394;12.340;2023-05-25T04:18:02;18.02;;;10.65;;
23300;SDS011;11819;51.394;12.340;2023-05-25T04:20:28;19.23;;;10.68;;
23300;SDS011;11819;51.394;12.340;2023-05-25T04:22:54;19.80;;;10.73;;
23300;SDS011;11819;51.394;12.340;2023-05-25T04:25:22;19.58;;;11.02;;
23300;SDS011;11819;51.394;12.340;2023-05-25T04:27:49;17.20;;;10.95;;
23300;SDS011;11819;51.394;12.340;2023-05-25T04:30:26;16.85;;;10.85;;
23300;SDS011;11819;51.394;12.340;2023-05-25T04:33:17;20.65;;;10.35;;
23300;SDS011;11819;51.394;12.340;2023-05-25T04:36:02;16.50;;;9.82;;
23300;SDS011;11819;51.394;12.340;2023-05-25T04:38:28;21.02;;;11.05;;
23300;SDS011;11819;51.394;12.340;2023-05-25T04:40:58;21.30;;;10.48;;
23300;SDS011;11819;51.394;12.340;2023-05-25T04:43:28;19.90;;;11.63;;
23300;SDS011;11819;51.394;12.340;2023-05-25T04:45:54;22.17;;;11.43;;
23300;SDS011;11819;51.394;12.340;2023-05-25T04:48:21;19.20;;;11.25;;
23300;SDS011;11819;51.394;12.340;2023-05-25T04:50:49;18.67;;;12.35;;
23300;SDS011;11819;51.394;12.340;2023-05-25T04:53:15;20.15;;;11.63;;
23300;SDS011;11819;51.394;12.340;2023-05-25T04:55:41;19.85;;;11.90;;
23300;SDS011;11819;51.394;12.340;2023-05-25T04:58:07;19.80;;;12.38;;
23300;SDS011;11819;51.394;12.340;2023-05-25T05:00:33;21.50;;;11.65;;
23300;SDS011;11819;51.394;12.340;2023-05-25T05:03:03;22.23;;;11.50;;
23300;SDS011;11819;51.394;12.340;2023-05-25T05:05:29;19.55;;;12.38;;
23300;SDS011;11819;51.394;12.340;2023-05-25T05:07:57;22.02;;;11.60;;
23300;SDS011;11819;51.394;12.340;2023-05-25T05:10:23;21.98;;;12.45;;
23300;SDS011;11819;51.394;12.340;2023-05-25T05:12:56;21.83;;;12.23;;
23300;SDS011;11819;51.394;12.340;2023-05-25T05:15:24;26.48;;;13.65;;
23300;SDS011;11819;51.394;12.340;2023-05-25T05:17:51;21.23;;;12.10;;
23300;SDS011;11819;51.394;12.340;2023-05-25T05:20:18;21.75;;;12.60;;
23300;SDS011;11819;51.394;12.340;2023-05-25T05:22:44;22.48;;;13.52;;
23300;SDS011;11819;51.394;12.340;2023-05-25T05:25:10;24.92;;;13.20;;
23300;SDS011;11819;51.394;12.340;2023-05-25T05:27:36;24.90;;;13.52;;
23300;SDS011;11819;51.394;12.340;2023-05-25T05:30:11;23.77;;;13.13;;
23300;SDS011;11819;51.394;12.340;2023-05-25T05:32:38;24.90;;;13.38;;
23300;SDS011;11819;51.394;12.340;2023-05-25T05:35:06;25.67;;;15.13;;
23300;SDS011;11819;51.394;12.340;2023-05-25T05:37:39;24.52;;;13.88;;
23300;SDS011;11819;51.394;12.340;2023-05-25T05:40:05;30.52;;;15.80;;
23300;SDS011;11819;51.394;12.340;2023-05-25T05:42:34;28.65;;;14.88;;
23300;SDS011;11819;51.394;12.340;2023-05-25T05:45:00;30.35;;;16.75;;
23300;SDS011;11819;51.394;12.340;2023-05-25T05:47:26;28.85;;;15.82;;
23300;SDS011;11819;51.394;12.340;2023-05-25T05:49:52;37.50;;;16.52;;
23300;SDS011;11819;51.394;12.340;2023-05-25T05:52:17;31.38;;;15.23;;
23300;SDS011;11819;51.394;12.340;2023-05-25T05:54:43;30.60;;;16.08;;
23300;SDS011;11819;51.394;12.340;2023-05-25T05:57:13;32.65;;;16.45;;
23300;SDS011;11819;51.394;12.340;2023-05-25T05:59:39;31.40;;;16.23;;
23300;SDS011;11819;51.394;12.340;2023-05-25T06:02:06;30.52;;;16.55;;
23300;SDS011;11819;51.394;12.340;2023-05-25T06:04:32;35.35;;;16.55;;
23300;SDS011;11819;51.394;12.340;2023-05-25T06:06:58;37.78;;;17.92;;
23300;SDS011;11819;51.394;12.340;2023-05-25T06:09:24;33.30;;;18.00;;
23300;SDS011;11819;51.394;12.340;2023-05-25T06:11:58;31.33;;;16.73;;
23300;SDS011;11819;51.394;12.340;2023-05-25T06:14:23;32.78;;;17.75;;
23300;SDS011;11819;51.394;12.340;2023-05-25T06:16:49;31.63;;;17.08;;
23300;SDS011;11819;51.394;12.340;2023-05-25T06:19:15;36.03;;;17.60;;
23300;SDS011;11819;51.394;12.340;2023-05-25T06:21:41;35.83;;;18.70;;
23300;SDS011;11819;51.394;12.340;2023-05-25T06:24:06;35.10;;;17.33;;
23300;SDS011;11819;51.394;12.340;2023-05-25T06:26:32;32.10;;;19.20;;
23300;SDS011;11819;51.394;12.340;2023-05-25T06:28:58;48.42;;;25.15;;
23300;SDS011;11819;51.394;12.340;2023-05-25T06:31:26;36.58;;;21.98;;
23300;SDS011;11819;51.394;12.340;2023-05-25T06:33:51;41.45;;;21.90;;
23300;SDS011;11819;51.394;12.340;2023-05-25T06:36:18;43.47;;;25.08;;
23300;SDS011;11819;51.394;12.340;2023-05-25T06:38:44;44.97;;;25.23;;
23300;SDS011;11819;51.394;12.340;2023-05-25T06:41:11;42.03;;;23.13;;
23300;SDS011;11819;51.394;12.340;2023-05-25T06:43:40;41.97;;;23.40;;
23300;SDS011;11819;51.394;12.340;2023-05-25T06:46:11;41.65;;;22.02;;
23300;SDS011;11819;51.394;12.340;2023-05-25T06:48:42;38.42;;;24.05;;
23300;SDS011;11819;51.394;12.340;2023-05-25T06:51:09;45.40;;;26.23;;
23300;SDS011;11819;51.394;12.340;2023-05-25T06:53:34;40.85;;;23.58;;
23300;SDS011;11819;51.394;12.340;2023-05-25T06:56:01;42.40;;;22.65;;
23300;SDS011;11819;51.394;12.340;2023-05-25T06:58:27;38.75;;;22.35;;
23300;SDS011;11819;51.394;12.340;2023-05-25T07:00:52;42.40;;;25.30;;
23300;SDS011;11819;51.394;12.340;2023-05-25T07:03:18;33.63;;;20.10;;
23300;SDS011;11819;51.394;12.340;2023-05-25T07:05:43;34.17;;;21.88;;
23300;SDS011;11819;51.394;12.340;2023-05-25T07:08:09;36.47;;;20.95;;
23300;SDS011;11819;51.394;12.340;2023-05-25T07:10:36;35.10;;;21.23;;
23300;SDS011;11819;51.394;12.340;2023-05-25T07:13:01;38.70;;;21.65;;
23300;SDS011;11819;51.394;12.340;2023-05-25T07:15:27;29.92;;;18.83;;
23300;SDS011;11819;51.394;12.340;2023-05-25T07:17:53;33.38;;;19.15;;
23300;SDS011;11819;51.394;12.340;2023-05-25T07:20:21;30.67;;;19.25;;
23300;SDS011;11819;51.394;12.340;2023-05-25T07:22:47;34.08;;;19.23;;
23300;SDS011;11819;51.394;12.340;2023-05-25T07:25:13;32.78;;;18.98;;
23300;SDS011;11819;51.394;12.340;2023-05-25T07:27:39;31.08;;;18.92;;
23300;SDS011;11819;51.394;12.340;2023-05-25T07:30:06;29.20;;;18.85;;
23300;SDS011;11819;51.394;12.340;2023-05-25T07:32:33;30.23;;;19.15;;
23300;SDS011;11819;51.394;12.340;2023-05-25T07:34:59;32.55;;;20.02;;
23300;SDS011;11819;51.394;12.340;2023-05-25T07:37:25;32.65;;;18.65;;
23300;SDS011;11819;51.394;12.340;2023-05-25T07:39:50;26.33;;;14.38;;
23300;SDS011;11819;51.394;12.340;2023-05-25T07:42:16;32.55;;;17.33;;
23300;SDS011;11819;51.394;12.340;2023-05-25T07:44:45;27.98;;;17.15;;
23300;SDS011;11819;51.394;12.340;2023-05-25T07:47:13;27.65;;;17.00;;
23300;SDS011;11819;51.394;12.340;2023-05-25T07:49:38;26.88;;;17.33;;
23300;SDS011;11819;51.394;12.340;2023-05-25T07:52:04;27.60;;;17.10;;
23300;SDS011;11819;51.394;12.340;2023-05-25T07:54:30;27.75;;;17.15;;
23300;SDS011;11819;51.394;12.340;2023-05-25T07:56:56;29.20;;;18.42;;
23300;SDS011;11819;51.394;12.340;2023-05-25T07:59:23;31.77;;;17.88;;
23300;SDS011;11819;51.394;12.340;2023-05-25T08:01:50;25.63;;;15.93;;
23300;SDS011;11819;51.394;12.340;2023-05-25T08:04:16;23.75;;;16.33;;
23300;SDS011;11819;51.394;12.340;2023-05-25T08:06:42;24.23;;;17.33;;
23300;SDS011;11819;51.394;12.340;2023-05-25T08:09:09;33.28;;;17.70;;
23300;SDS011;11819;51.394;12.340;2023-05-25T08:11:37;28.75;;;16.90;;
23300;SDS011;11819;51.394;12.340;2023-05-25T08:14:03;30.80;;;17.52;;
23300;SDS011;11819;51.394;12.340;2023-05-25T08:16:29;30.90;;;18.50;;
23300;SDS011;11819;51.394;12.340;2023-05-25T08:18:54;30.50;;;17.67;;
23300;SDS011;11819;51.394;12.340;2023-05-25T08:21:20;22.52;;;15.50;;
23300;SDS011;11819;51.394;12.340;2023-05-25T08:23:46;23.05;;;13.80;;
23300;SDS011;11819;51.394;12.340;2023-05-25T08:26:12;29.70;;;17.33;;
23300;SDS011;11819;51.394;12.340;2023-05-25T08:28:38;24.58;;;15.82;;
23300;SDS011;11819;51.394;12.340;2023-05-25T08:31:03;25.65;;;15.98;;
23300;SDS011;11819;51.394;12.340;2023-05-25T08:33:29;27.27;;;16.95;;
23300;SDS011;11819;51.394;12.340;2023-05-25T08:35:55;28.27;;;15.50;;
23300;SDS011;11819;51.394;12.340;2023-05-25T08:38:23;28.55;;;17.75;;
23300;SDS011;11819;51.394;12.340;2023-05-25T08:41:10;26.92;;;16.35;;
23300;SDS011;11819;51.394;12.340;2023-05-25T08:43:35;33.38;;;17.25;;
23300;SDS011;11819;51.394;12.340;2023-05-25T08:46:05;30.25;;;17.20;;
23300;SDS011;11819;51.394;12.340;2023-05-25T08:48:33;26.63;;;16.45;;
23300;SDS011;11819;51.394;12.340;2023-05-25T08:51:03;28.05;;;16.25;;
23300;SDS011;11819;51.394;12.340;2023-05-25T08:53:33;28.27;;;14.80;;
23300;SDS011;11819;51.394;12.340;2023-05-25T08:56:01;26.13;;;14.38;;
23300;SDS011;11819;51.394;12.340;2023-05-25T08:58:32;27.67;;;14.70;;
23300;SDS011;11819;51.394;12.340;2023-05-25T09:01:04;23.70;;;14.35;;
23300;SDS011;11819;51.394;12.340;2023-05-25T09:03:33;25.35;;;15.10;;
23300;SDS011;11819;51.394;12.340;2023-05-25T09:06:00;23.33;;;13.30;;
23300;SDS011;11819;51.394;12.340;2023-05-25T09:08:26;19.70;;;11.15;;
23300;SDS011;11819;51.394;12.340;2023-05-25T09:10:52;18.08;;;10.38;;
23300;SDS011;11819;51.394;12.340;2023-05-25T09:13:20;21.30;;;12.45;;
23300;SDS011;11819;51.394;12.340;2023-05-25T09:15:46;23.58;;;12.48;;
23300;SDS011;11819;51.394;12.340;2023-05-25T09:18:12;21.88;;;12.63;;
23300;SDS011;11819;51.394;12.340;2023-05-25T09:20:38;17.80;;;11.27;;
23300;SDS011;11819;51.394;12.340;2023-05-25T09:23:04;20.77;;;10.68;;
23300;SDS011;11819;51.394;12.340;2023-05-25T09:25:30;20.70;;;11.55;;
23300;SDS011;11819;51.394;12.340;2023-05-25T09:27:56;16.75;;;10.98;;
23300;SDS011;11819;51.394;12.340;2023-05-25T09:30:22;17.33;;;10.80;;
23300;SDS011;11819;51.394;12.340;2023-05-25T09:32:49;19.60;;;10.82;;
23300;SDS011;11819;51.394;12.340;2023-05-25T09:35:15;15.90;;;7.57;;
23300;SDS011;11819;51.394;12.340;2023-05-25T09:37:43;15.90;;;8.55;;
23300;SDS011;11819;51.394;12.340;2023-05-25T09:40:09;17.80;;;8.27;;
23300;SDS011;11819;51.394;12.340;2023-05-25T09:42:36;19.02;;;9.50;;
23300;SDS011;11819;51.394;12.340;2023-05-25T09:45:02;19.25;;;10.57;;
23300;SDS011;11819;51.394;12.340;2023-05-25T09:47:28;18.00;;;9.00;;
23300;SDS011;11819;51.394;12.340;2023-05-25T09:49:55;19.83;;;10.85;;
23300;SDS011;11819;51.394;12.340;2023-05-25T09:52:21;13.50;;;7.90;;
23300;SDS011;11819;51.394;12.340;2023-05-25T09:54:48;16.92;;;9.25;;
23300;SDS011;11819;51.394;12.340;2023-05-25T09:57:17;15.07;;;8.68;;
23300;SDS011;11819;51.394;12.340;2023-05-25T09:59:43;18.13;;;10.07;;
23300;SDS011;11819;51.394;12.340;2023-05-25T10:02:10;19.02;;;10.13;;
23300;SDS011;11819;51.394;12.340;2023-05-25T10:04:37;16.63;;;9.35;;
23300;SDS011;11819;51.394;12.340;2023-05-25T10:07:03;16.98;;;10.38;;
23300;SDS011;11819;51.394;12.340;2023-05-25T10:09:30;16.70;;;9.38;;
23300;SDS011;11819;51.394;12.340;2023-05-25T10:11:56;18.10;;;9.73;;
23300;SDS011;11819;51.394;12.340;2023-05-25T10:14:27;18.33;;;9.32;;
23300;SDS011;11819;51.394;12.340;2023-05-25T10:16:54;17.50;;;9.75;;
23300;SDS011;11819;51.394;12.340;2023-05-25T10:19:45;15.20;;;9.40;;
23300;SDS011;11819;51.394;12.340;2023-05-25T10:25:17;16.52;;;8.45;;
23300;SDS011;11819;51.394;12.340;2023-05-25T10:28:01;14.80;;;8.57;;
23300;SDS011;11819;51.394;12.340;2023-05-25T10:30:31;13.63;;;7.95;;
23300;SDS011;11819;51.394;12.340;2023-05-25T10:32:57;16.45;;;9.20;;
23300;SDS011;11819;51.394;12.340;2023-05-25T10:35:25;16.52;;;9.15;;
23300;SDS011;11819;51.394;12.340;2023-05-25T10:37:52;16.50;;;9.43;;
23300;SDS011;11819;51.394;12.340;2023-05-25T10:40:21;15.82;;;8.77;;
23300;SDS011;11819;51.394;12.340;2023-05-25T10:42:51;15.65;;;9.20;;
23300;SDS011;11819;51.394;12.340;2023-05-25T10:45:16;19.15;;;8.82;;
23300;SDS011;11819;51.394;12.340;2023-05-25T10:47:43;14.10;;;9.15;;
23300;SDS011;11819;51.394;12.340;2023-05-25T10:50:19;17.63;;;9.25;;
23300;SDS011;11819;51.394;12.340;2023-05-25T10:53:01;13.27;;;8.25;;
23300;SDS011;11819;51.394;12.340;2023-05-25T10:55:41;17.13;;;7.90;;
23300;SDS011;11819;51.394;12.340;2023-05-25T10:58:15;13.55;;;6.95;;
23300;SDS011;11819;51.394;12.340;2023-05-25T11:00:41;14.52;;;7.57;;
23300;SDS011;11819;51.394;12.340;2023-05-25T11:03:08;14.93;;;7.95;;
23300;SDS011;11819;51.394;12.340;2023-05-25T11:08:11;12.35;;;7.28;;
23300;SDS011;11819;51.394;12.340;2023-05-25T11:10:43;20.27;;;8.15;;
23300;SDS011;11819;51.394;12.340;2023-05-25T11:13:21;14.73;;;7.40;;
23300;SDS011;11819;51.394;12.340;2023-05-25T11:18:52;12.48;;;6.70;;
23300;SDS011;11819;51.394;12.340;2023-05-25T11:24:12;10.40;;;5.80;;
23300;SDS011;11819;51.394;12.340;2023-05-25T11:26:54;8.43;;;5.72;;
23300;SDS011;11819;51.394;12.340;2023-05-25T11:29:21;10.95;;;6.53;;
23300;SDS011;11819;51.394;12.340;2023-05-25T11:31:53;15.10;;;7.25;;
23300;SDS011;11819;51.394;12.340;2023-05-25T11:34:20;15.02;;;7.95;;
23300;SDS011;11819;51.394;12.340;2023-05-25T11:36:51;12.27;;;8.15;;
23300;SDS011;11819;51.394;12.340;2023-05-25T11:39:19;12.48;;;7.55;;
23300;SDS011;11819;51.394;12.340;2023-05-25T11:41:47;11.98;;;7.38;;
23300;SDS011;11819;51.394;12.340;2023-05-25T11:44:23;12.43;;;7.25;;
23300;SDS011;11819;51.394;12.340;2023-05-25T11:46:53;13.70;;;7.50;;
23300;SDS011;11819;51.394;12.340;2023-05-25T11:49:21;14.07;;;6.93;;
23300;SDS011;11819;51.394;12.340;2023-05-25T11:51:47;10.20;;;6.45;;
23300;SDS011;11819;51.394;12.340;2023-05-25T11:54:29;9.80;;;6.45;;
23300;SDS011;11819;51.394;12.340;2023-05-25T11:56:55;12.38;;;6.47;;
23300;SDS011;11819;51.394;12.340;2023-05-25T11:59:24;12.70;;;6.53;;
23300;SDS011;11819;51.394;12.340;2023-05-25T12:02:00;11.82;;;6.30;;
23300;SDS011;11819;51.394;12.340;2023-05-25T12:04:28;12.40;;;8.00;;
23300;SDS011;11819;51.394;12.340;2023-05-25T12:07:04;12.27;;;6.88;;
23300;SDS011;11819;51.394;12.340;2023-05-25T12:09:31;12.07;;;6.90;;
23300;SDS011;11819;51.394;12.340;2023-05-25T12:12:04;11.95;;;7.35;;
23300;SDS011;11819;51.394;12.340;2023-05-25T12:14:31;11.55;;;7.00;;
23300;SDS011;11819;51.394;12.340;2023-05-25T12:17:00;12.35;;;6.40;;
23300;SDS011;11819;51.394;12.340;2023-05-25T12:19:25;12.93;;;7.63;;
23300;SDS011;11819;51.394;12.340;2023-05-25T12:21:54;11.85;;;6.90;;
23300;SDS011;11819;51.394;12.340;2023-05-25T12:24:20;12.05;;;6.68;;
23300;SDS011;11819;51.394;12.340;2023-05-25T12:26:51;12.20;;;7.28;;
23300;SDS011;11819;51.394;12.340;2023-05-25T12:29:22;9.73;;;6.97;;
23300;SDS011;11819;51.394;12.340;2023-05-25T12:31:49;12.27;;;6.45;;
23300;SDS011;11819;51.394;12.340;2023-05-25T12:34:16;12.90;;;6.60;;
23300;SDS011;11819;51.394;12.340;2023-05-25T12:36:46;12.20;;;6.55;;
23300;SDS011;11819;51.394;12.340;2023-05-25T12:39:15;14.60;;;7.03;;
23300;SDS011;11819;51.394;12.340;2023-05-25T12:41:42;12.90;;;6.93;;
23300;SDS011;11819;51.394;12.340;2023-05-25T12:46:43;14.73;;;6.93;;
23300;SDS011;11819;51.394;12.340;2023-05-25T12:49:22;14.20;;;6.95;;
23300;SDS011;11819;51.394;12.340;2023-05-25T12:51:53;10.02;;;7.38;;
23300;SDS011;11819;51.394;12.340;2023-05-25T12:57:05;16.88;;;8.18;;
23300;SDS011;11819;51.394;12.340;2023-05-25T12:59:33;13.00;;;7.43;;
23300;SDS011;11819;51.394;12.340;2023-05-25T13:01:59;11.48;;;6.60;;
23300;SDS011;11819;51.394;12.340;2023-05-25T13:04:25;11.52;;;7.25;;
23300;SDS011;11819;51.394;12.340;2023-05-25T13:06:51;13.65;;;7.55;;
23300;SDS011;11819;51.394;12.340;2023-05-25T13:09:18;11.63;;;6.82;;
23300;SDS011;11819;51.394;12.340;2023-05-25T13:11:44;12.50;;;7.82;;
23300;SDS011;11819;51.394;12.340;2023-05-25T13:14:09;11.32;;;6.95;;
23300;SDS011;11819;51.394;12.340;2023-05-25T13:16:35;12.07;;;7.63;;
23300;SDS011;11819;51.394;12.340;2023-05-25T13:19:01;12.35;;;6.80;;
23300;SDS011;11819;51.394;12.340;2023-05-25T13:21:27;14.45;;;6.85;;
23300;SDS011;11819;51.394;12.340;2023-05-25T13:23:54;11.60;;;7.70;;
23300;SDS011;11819;51.394;12.340;2023-05-25T13:26:19;11.40;;;7.60;;
23300;SDS011;11819;51.394;12.340;2023-05-25T13:28:45;13.57;;;8.10;;
23300;SDS011;11819;51.394;12.340;2023-05-25T13:31:11;12.05;;;6.90;;
23300;SDS011;11819;51.394;12.340;2023-05-25T13:33:37;11.13;;;7.10;;
23300;SDS011;11819;51.394;12.340;2023-05-25T13:36:03;11.90;;;6.88;;
23300;SDS011;11819;51.394;12.340;2023-05-25T13:38:35;14.55;;;7.55;;
23300;SDS011;11819;51.394;12.340;2023-05-25T13:41:02;12.15;;;6.75;;
23300;SDS011;11819;51.394;12.340;2023-05-25T13:43:28;11.82;;;6.82;;
23300;SDS011;11819;51.394;12.340;2023-05-25T13:45:55;10.73;;;6.82;;
23300;SDS011;11819;51.394;12.340;2023-05-25T13:48:22;12.00;;;7.18;;
23300;SDS011;11819;51.394;12.340;2023-05-25T13:50:48;10.85;;;7.93;;
23300;SDS011;11819;51.394;12.340;2023-05-25T13:53:13;12.88;;;7.75;;
23300;SDS011;11819;51.394;12.340;2023-05-25T13:55:39;10.63;;;7.63;;
23300;SDS011;11819;51.394;12.340;2023-05-25T13:58:06;11.55;;;7.07;;
23300;SDS011;11819;51.394;12.340;2023-05-25T14:00:35;14.85;;;8.23;;
23300;SDS011;11819;51.394;12.340;2023-05-25T14:03:01;15.77;;;7.43;;
23300;SDS011;11819;51.394;12.340;2023-05-25T14:05:26;12.10;;;8.07;;
23300;SDS011;11819;51.394;12.340;2023-05-25T14:07:55;13.18;;;7.97;;
23300;SDS011;11819;51.394;12.340;2023-05-25T14:10:22;10.73;;;7.47;;
23300;SDS011;11819;51.394;12.340;2023-05-25T14:12:48;10.95;;;7.65;;
23300;SDS011;11819;51.394;12.340;2023-05-25T14:15:13;12.45;;;7.45;;
23300;SDS011;11819;51.394;12.340;2023-05-25T14:17:39;11.38;;;7.80;;
23300;SDS011;11819;51.394;12.340;2023-05-25T14:20:05;12.32;;;7.55;;
23300;SDS011;11819;51.394;12.340;2023-05-25T14:22:31;10.70;;;7.40;;
23300;SDS011;11819;51.394;12.340;2023-05-25T14:24:56;12.05;;;7.35;;
23300;SDS011;11819;51.394;12.340;2023-05-25T14:27:22;12.25;;;7.43;;
23300;SDS011;11819;51.394;12.340;2023-05-25T14:29:48;11.07;;;7.65;;
23300;SDS011;11819;51.394;12.340;2023-05-25T14:32:15;12.07;;;7.82;;
23300;SDS011;11819;51.394;12.340;2023-05-25T14:34:43;12.10;;;7.75;;
23300;SDS011;11819;51.394;12.340;2023-05-25T14:37:09;13.43;;;7.40;;
23300;SDS011;11819;51.394;12.340;2023-05-25T14:39:35;11.55;;;6.82;;
23300;SDS011;11819;51.394;12.340;2023-05-25T14:42:01;10.75;;;6.88;;